Time;durP1;ratioP1;P1;durP2;ratioP2;P2;SDS_P1;SDS_P2;PMS_P1;PMS_P2;Temp;Humidity;BMP_temperature;BMP_pressure;BME280_temperature;BME280_humidity;BME280_pressure;Samples;Min_cycle;Max_cycle;Signal;HPM_P1;HPM_P2
2021/03/15 00:00:57;;;;;;;6.90;3.28;;;8.50;69.40;;;;;;2335846;53;21052;-67
2021/03/15 00:03:23;;;;;;;7.78;3.40;;;8.50;69.40;;;;;;2299242;53;21455;-67
2021/03/15 00:06:10;;;;;;;7.05;3.17;;;8.50;69.30;;;;;;2563383;52;21736;-66
2021/03/15 00:08:36;;;;;;;6.62;2.85;;;8.50;69.10;;;;;;2318259;54;21442;-66
2021/03/15 00:14:46;;;;;;;11.10;3.97;;;8.40;68.70;;;;;;2555141;52;21710;-67
2021/03/15 00:17:15;;;;;;;12.27;3.92;;;8.40;68.80;;;;;;2313472;54;21690;-67
2021/03/15 00:19:43;;;;;;;8.07;2.83;;;8.30;68.70;;;;;;2326294;53;21050;-66
2021/03/15 00:22:11;;;;;;;6.47;1.85;;;8.30;68.90;;;;;;2316023;54;21861;-66
2021/03/15 00:24:37;;;;;;;6.75;2.58;;;8.30;69.00;;;;;;2316850;53;20958;-67
2021/03/15 00:27:28;;;;;;;7.57;3.30;;;8.30;69.00;;;;;;2313136;53;21010;-67
2021/03/15 00:29:55;;;;;;;5.47;2.25;;;8.20;68.70;;;;;;2306162;53;20932;-67
2021/03/15 00:32:25;;;;;;;3.62;1.58;;;8.20;69.00;;;;;;2550974;53;21115;-66
2021/03/15 00:34:53;;;;;;;4.15;1.60;;;8.20;69.10;;;;;;2316721;54;21441;-67
2021/03/15 00:37:22;;;;;;;5.22;1.92;;;8.10;69.20;;;;;;2559998;52;21464;-66
2021/03/15 00:39:49;;;;;;;4.15;1.60;;;8.10;69.30;;;;;;2311898;54;21750;-66
2021/03/15 00:42:15;;;;;;;3.55;1.40;;;8.10;69.40;;;;;;2553218;52;20980;-67
2021/03/15 00:45:31;;;;;;;2.83;1.00;;;8.10;69.40;;;;;;2314247;53;21042;-66
2021/03/15 00:48:35;;;;;;;2.50;1.00;;;8.10;69.10;;;;;;2561395;53;20960;-66
2021/03/15 00:51:01;;;;;;;3.28;1.00;;;8.10;69.10;;;;;;2574464;53;21060;-66
2021/03/15 00:53:28;;;;;;;2.60;1.00;;;8.10;69.50;;;;;;2577910;52;21572;-66
2021/03/15 00:55:54;;;;;;;2.53;0.93;;;8.10;69.60;;;;;;2338676;54;21324;-67
2021/03/15 00:58:44;;;;;;;2.25;0.90;;;8.10;69.80;;;;;;2339824;54;20928;-67
2021/03/15 01:01:31;;;;;;;;;;;8.10;69.60;;;;;;2577977;52;21124;-67
2021/03/15 01:03:57;;;;;;;2.87;1.00;;;8.10;69.00;;;;;;2328581;53;20851;-66
2021/03/15 01:09:53;;;;;;;4.07;1.37;;;8.10;69.50;;;;;;2330422;54;21070;-66
2021/03/15 01:12:21;;;;;;;5.28;1.40;;;8.10;69.90;;;;;;2339298;54;21333;-66
2021/03/15 01:14:48;;;;;;;3.70;1.40;;;8.10;69.90;;;;;;2584446;52;20956;-67
2021/03/15 01:17:56;;;;;;;3.85;1.20;;;8.00;69.70;;;;;;2582120;52;21007;-67
2021/03/15 01:20:22;;;;;;;2.90;1.42;;;8.00;69.30;;;;;;2312646;55;20947;-67
2021/03/15 01:22:50;;;;;;;3.70;1.52;;;8.00;69.40;;;;;;2326277;53;21808;-67
2021/03/15 01:25:16;;;;;;;2.12;0.90;;;8.00;69.60;;;;;;2329410;54;21032;-67
2021/03/15 01:27:42;;;;;;;4.07;1.62;;;8.00;69.60;;;;;;2338122;54;21833;-66
2021/03/15 01:30:22;;;;;;;3.37;1.23;;;7.90;69.40;;;;;;2344850;54;20920;-67
2021/03/15 01:32:48;;;;;;;3.00;1.30;;;7.90;69.20;;;;;;2337339;53;21455;-67
2021/03/15 01:35:18;;;;;;;3.85;1.40;;;7.90;69.40;;;;;;2330614;53;21662;-67
2021/03/15 01:37:45;;;;;;;4.07;1.37;;;7.90;69.40;;;;;;2579620;52;21832;-67
2021/03/15 01:40:12;;;;;;;3.53;1.40;;;7.90;69.50;;;;;;2319087;53;20963;-67
2021/03/15 01:42:39;;;;;;;3.85;1.40;;;7.90;69.50;;;;;;2559253;52;21452;-67
2021/03/15 01:45:06;;;;;;;3.92;1.65;;;7.80;69.40;;;;;;2328994;54;21907;-67
2021/03/15 01:47:33;;;;;;;4.78;1.77;;;7.80;69.50;;;;;;2567944;53;20993;-67
2021/03/15 01:50:31;;;;;;;4.12;1.70;;;7.80;69.50;;;;;;2319797;54;20901;-67
2021/03/15 01:52:57;;;;;;;4.03;1.60;;;7.80;69.30;;;;;;2561587;52;20936;-66
2021/03/15 01:55:27;;;;;;;4.95;1.90;;;7.90;69.60;;;;;;2290311;54;21626;-67
2021/03/15 01:57:53;;;;;;;6.30;2.60;;;7.90;69.60;;;;;;2554358;52;21550;-66
2021/03/15 02:00:20;;;;;;;6.15;2.80;;;7.80;69.60;;;;;;2543847;52;21703;-66
2021/03/15 02:02:58;;;;;;;5.68;1.67;;;7.80;69.50;;;;;;2534033;52;21618;-67
2021/03/15 02:05:27;;;;;;;3.47;1.40;;;7.80;69.40;;;;;;2257583;54;21500;-68
2021/03/15 02:07:56;;;;;;;5.30;1.50;;;7.80;69.40;;;;;;2299640;53;21813;-66
2021/03/15 02:10:22;;;;;;;6.03;2.20;;;7.80;69.50;;;;;;2529238;52;21410;-67
2021/03/15 02:19:29;;;;;;;8.25;3.08;;;7.70;69.50;;;;;;2293358;54;21019;-67
2021/03/15 02:25:08;;;;;;;9.30;3.00;;;7.90;69.00;;;;;;2280404;54;21992;-67
2021/03/15 02:28:12;;;;;;;6.00;2.42;;;7.90;69.80;;;;;;2316400;53;21497;-67
2021/03/15 02:31:22;;;;;;;8.57;1.73;;;7.90;69.70;;;;;;2572378;52;21527;-67
2021/03/15 02:35:17;;;;;;;5.12;1.77;;;7.90;69.70;;;;;;2324461;53;20954;-68
2021/03/15 02:38:02;;;;;;;4.05;1.75;;;7.90;69.50;;;;;;2322548;54;20961;-67
2021/03/15 02:40:48;;;;;;;3.87;1.70;;;7.90;70.40;;;;;;2528230;52;20969;-67
2021/03/15 02:43:20;;;;;;;4.60;1.45;;;8.00;70.10;;;;;;2312064;53;20964;-67
2021/03/15 02:45:47;;;;;;;;;;;8.00;70.50;;;;;;2319079;54;21967;-67
2021/03/15 02:48:13;;;;;;;7.20;1.40;;;8.00;69.60;;;;;;2308958;54;20418;-66
2021/03/15 02:50:42;;;;;;;2.60;0.98;;;8.10;70.50;;;;;;2558189;52;21572;-67
2021/03/15 02:53:11;;;;;;;3.80;1.33;;;8.10;70.40;;;;;;2310811;54;20964;-66
2021/03/15 02:55:38;;;;;;;4.75;1.60;;;8.10;70.30;;;;;;2553999;52;21827;-68
2021/03/15 02:58:05;;;;;;;4.43;1.40;;;8.10;70.30;;;;;;2316901;53;20943;-66
2021/03/15 03:00:32;;;;;;;3.50;1.48;;;8.10;70.10;;;;;;2314546;53;20983;-66
2021/03/15 03:02:58;;;;;;;5.47;1.52;;;8.00;70.10;;;;;;2306597;53;21047;-66
2021/03/15 03:05:28;;;;;;;5.00;1.42;;;8.00;69.90;;;;;;2313686;54;21528;-68
2021/03/15 03:08:03;;;;;;;5.07;1.27;;;8.10;70.00;;;;;;2318338;54;21047;-66
2021/03/15 03:10:30;;;;;;;3.42;1.10;;;8.00;69.80;;;;;;2322592;53;21564;-66
2021/03/15 03:12:57;;;;;;;4.32;1.40;;;8.00;69.80;;;;;;2323209;54;21710;-67
2021/03/15 03:15:29;;;;;;;4.18;1.73;;;8.00;69.80;;;;;;2567467;52;21690;-67
2021/03/15 03:17:56;;;;;;;4.70;2.05;;;8.00;69.70;;;;;;2328671;53;21551;-67
2021/03/15 03:20:23;;;;;;;6.37;1.80;;;8.00;69.70;;;;;;2568746;52;20956;-66
2021/03/15 03:22:50;;;;;;;4.32;1.77;;;7.90;69.60;;;;;;2322060;54;20936;-66
2021/03/15 03:25:18;;;;;;;4.80;1.85;;;7.90;69.60;;;;;;2312789;53;21746;-67
2021/03/15 03:27:57;;;;;;;3.35;1.70;;;7.90;69.70;;;;;;2317794;53;21945;-67
2021/03/15 03:30:30;;;;;;;5.30;1.70;;;7.80;69.70;;;;;;2328160;53;21076;-66
2021/03/15 03:33:01;;;;;;;6.28;1.90;;;7.80;69.80;;;;;;2312822;53;20933;-66
2021/03/15 03:35:27;;;;;;;6.18;1.73;;;7.80;70.30;;;;;;2317789;53;22005;-67
2021/03/15 03:37:59;;;;;;;6.70;2.10;;;7.80;70.00;;;;;;2308418;53;20955;-67
2021/03/15 03:40:40;;;;;;;4.93;2.03;;;7.70;70.00;;;;;;2543246;53;21755;-67
2021/03/15 03:43:09;;;;;;;5.10;2.00;;;7.70;69.90;;;;;;2304099;54;21618;-67
2021/03/15 03:45:36;;;;;;;6.47;2.05;;;7.70;70.00;;;;;;2306432;53;21361;-67
2021/03/15 03:48:06;;;;;;;3.97;1.95;;;7.70;70.20;;;;;;2325791;54;21014;-66
2021/03/15 03:50:35;;;;;;;5.43;1.80;;;7.70;70.30;;;;;;2551379;52;21580;-66
2021/03/15 03:53:42;;;;;;;4.43;1.70;;;7.60;70.30;;;;;;2305199;54;20935;-66
2021/03/15 03:56:20;;;;;;;5.87;2.28;;;7.60;70.30;;;;;;2305846;54;20972;-66
2021/03/15 03:58:52;;;;;;;5.03;2.10;;;7.60;70.60;;;;;;2561804;53;21567;-67
2021/03/15 04:01:27;;;;;;;4.40;1.90;;;7.60;70.70;;;;;;2319237;53;20951;-67
2021/03/15 04:03:53;;;;;;;4.55;2.30;;;7.60;70.70;;;;;;2566628;53;21786;-66
2021/03/15 04:06:20;;;;;;;6.45;2.00;;;7.60;70.90;;;;;;2309664;53;21035;-65
2021/03/15 04:09:12;;;;;;;5.12;1.98;;;7.60;70.90;;;;;;2319787;54;20965;-66
2021/03/15 04:11:49;;;;;;;5.70;1.80;;;7.60;70.90;;;;;;2529460;53;21005;-66
2021/03/15 04:14:29;;;;;;;5.47;2.28;;;7.60;71.10;;;;;;2313778;54;21733;-67
2021/03/15 04:16:59;;;;;;;6.10;2.20;;;7.60;71.00;;;;;;2311291;53;20967;-67
2021/03/15 04:19:29;;;;;;;6.20;2.10;;;7.60;71.00;;;;;;2318057;53;21653;-67
2021/03/15 04:22:00;;;;;;;7.62;2.37;;;7.60;71.20;;;;;;2551230;52;22002;-67
2021/03/15 04:24:28;;;;;;;4.72;2.20;;;7.60;71.20;;;;;;2309194;53;21075;-68
2021/03/15 04:26:55;;;;;;;6.97;2.12;;;7.40;71.00;;;;;;2315719;53;22215;-66
2021/03/15 04:29:21;;;;;;;7.53;2.60;;;7.50;71.20;;;;;;2307726;53;20972;-66
2021/03/15 04:31:48;;;;;;;4.97;2.00;;;7.60;71.30;;;;;;2308301;54;22170;-67
2021/03/15 04:34:15;;;;;;;7.28;2.20;;;7.60;71.40;;;;;;2549743;52;21804;-66
2021/03/15 04:36:43;;;;;;;7.50;2.42;;;7.60;71.40;;;;;;2300008;54;20961;-66
2021/03/15 04:39:14;;;;;;;5.55;2.30;;;7.60;71.40;;;;;;2536849;52;21016;-66
2021/03/15 04:41:44;;;;;;;7.95;2.20;;;7.60;71.30;;;;;;2306641;54;20913;-66
2021/03/15 04:44:13;;;;;;;7.03;2.60;;;7.60;71.20;;;;;;2550242;53;21603;-66
2021/03/15 04:46:39;;;;;;;5.03;1.65;;;7.50;71.20;;;;;;2303134;53;20983;-67
2021/03/15 04:49:07;;;;;;;3.90;1.65;;;7.60;71.40;;;;;;2310183;53;22098;-67
2021/03/15 04:51:35;;;;;;;9.13;2.55;;;7.50;71.30;;;;;;2304275;53;21306;-66
2021/03/15 04:54:02;;;;;;;4.90;2.10;;;7.70;71.40;;;;;;2542689;52;24884;-66
2021/03/15 04:56:28;;;;;;;7.03;1.83;;;7.70;71.40;;;;;;2536973;52;21056;-67
2021/03/15 04:58:56;;;;;;;5.28;1.80;;;7.70;71.40;;;;;;2293959;53;21667;-66
2021/03/15 05:01:29;;;;;;;4.12;1.70;;;7.70;71.40;;;;;;2304857;53;21684;-66
2021/03/15 05:03:57;;;;;;;5.10;1.90;;;7.70;71.50;;;;;;2529108;52;21609;-67
2021/03/15 05:06:27;;;;;;;8.07;2.83;;;7.70;71.40;;;;;;2306187;53;21555;-66
2021/03/15 05:08:55;;;;;;;4.43;1.55;;;7.70;71.40;;;;;;2308409;53;21647;-66
2021/03/15 05:11:25;;;;;;;3.78;1.48;;;7.50;71.30;;;;;;2549913;52;20992;-66
2021/03/15 05:13:53;;;;;;;5.47;1.60;;;7.70;71.50;;;;;;2551931;52;21533;-66
2021/03/15 05:16:21;;;;;;;5.68;1.77;;;7.70;71.60;;;;;;2307596;54;21017;-66
2021/03/15 05:18:50;;;;;;;4.97;1.83;;;7.70;71.50;;;;;;2558942;52;21607;-67
2021/03/15 05:21:17;;;;;;;2.53;1.05;;;7.70;71.60;;;;;;2562744;52;21369;-67
2021/03/15 05:23:45;;;;;;;6.10;1.80;;;7.70;71.70;;;;;;2325820;53;21637;-67
2021/03/15 05:26:12;;;;;;;4.75;1.70;;;7.70;71.70;;;;;;2320578;54;20936;-66
2021/03/15 05:28:41;;;;;;;3.22;1.40;;;7.70;71.70;;;;;;2568475;52;20996;-67
2021/03/15 05:31:07;;;;;;;4.10;1.62;;;7.70;71.60;;;;;;2326227;53;20963;-67
2021/03/15 05:33:36;;;;;;;5.87;2.45;;;7.70;71.50;;;;;;2565601;52;20969;-66
2021/03/15 05:36:06;;;;;;;5.75;2.00;;;7.70;71.50;;;;;;2328098;53;21394;-66
2021/03/15 05:38:33;;;;;;;4.62;1.62;;;7.70;71.40;;;;;;2341017;53;21041;-66
2021/03/15 05:40:59;;;;;;;10.48;2.17;;;7.70;71.40;;;;;;2569357;52;20947;-67
2021/03/15 05:43:33;;;;;;;6.05;1.80;;;7.70;71.30;;;;;;2330535;53;20937;-66
2021/03/15 05:51:14;;;;;;;3.80;1.67;;;7.70;71.40;;;;;;2326012;54;20953;-67
2021/03/15 05:58:01;;;;;;;4.12;1.50;;;7.70;70.90;;;;;;2566033;52;21279;-66
2021/03/15 06:04:26;;;;;;;4.47;1.77;;;7.70;71.00;;;;;;2322177;53;21466;-67
2021/03/15 06:06:53;;;;;;;5.57;1.50;;;7.70;70.90;;;;;;2326841;53;21064;-66
2021/03/15 06:09:21;;;;;;;3.83;1.55;;;7.70;71.20;;;;;;2310819;53;20963;-65
2021/03/15 06:11:53;;;;;;;6.05;1.60;;;7.60;71.30;;;;;;2309335;53;21454;-66
2021/03/15 06:18:08;;;;;;;6.20;1.20;;;7.60;71.30;;;;;;2318625;53;20992;-65
2021/03/15 06:20:49;;;;;;;4.53;1.30;;;7.60;71.40;;;;;;2301538;53;22119;-66
2021/03/15 06:23:22;;;;;;;4.93;1.23;;;7.60;71.50;;;;;;2294787;53;20959;-67
2021/03/15 06:25:48;;;;;;;;;;;7.60;71.60;;;;;;2288500;54;20956;-66
2021/03/15 06:28:25;;;;;;;4.18;1.40;;;7.60;71.00;;;;;;2294778;54;20153;-67
2021/03/15 06:30:55;;;;;;;6.25;1.50;;;7.60;71.40;;;;;;2558544;52;21500;-66
2021/03/15 06:33:22;;;;;;;3.50;1.20;;;7.60;71.40;;;;;;2554302;52;21467;-66
2021/03/15 06:35:53;;;;;;;4.32;1.37;;;7.60;71.50;;;;;;2310682;53;20939;-67
2021/03/15 06:38:21;;;;;;;5.90;1.30;;;7.60;71.60;;;;;;2294317;54;20964;-66
2021/03/15 06:40:57;;;;;;;4.03;1.33;;;7.60;71.70;;;;;;2571179;52;20996;-67
2021/03/15 06:43:23;;;;;;;4.00;1.30;;;7.60;71.70;;;;;;2567021;53;21491;-66
2021/03/15 06:45:57;;;;;;;3.42;1.20;;;7.60;71.70;;;;;;2569951;52;21389;-67
2021/03/15 06:48:28;;;;;;;3.90;0.93;;;7.60;71.70;;;;;;2330232;54;20908;-66
2021/03/15 06:50:56;;;;;;;2.62;0.90;;;7.60;71.80;;;;;;2569797;52;20932;-66
2021/03/15 06:53:23;;;;;;;2.72;0.70;;;7.60;71.80;;;;;;2568758;52;21026;-66
2021/03/15 06:55:51;;;;;;;3.05;0.88;;;7.60;71.80;;;;;;2546621;53;20933;-66
2021/03/15 06:58:33;;;;;;;1.33;0.60;;;7.60;71.80;;;;;;2546314;52;21396;-70
2021/03/15 07:01:21;;;;;;;4.03;1.08;;;7.60;72.20;;;;;;2544101;52;20956;-66
2021/03/15 07:04:08;;;;;;;2.17;0.90;;;7.60;71.40;;;;;;2285773;55;21091;-67
2021/03/15 07:06:40;;;;;;;3.60;1.15;;;7.60;71.60;;;;;;2300709;53;21827;-67
2021/03/15 07:09:19;;;;;;;2.08;0.70;;;7.60;71.60;;;;;;2297037;53;22275;-66
2021/03/15 07:11:59;;;;;;;1.65;0.60;;;7.60;71.60;;;;;;2297415;53;21544;-67
2021/03/15 07:14:30;;;;;;;2.03;0.77;;;7.60;71.80;;;;;;2297815;53;22256;-67
2021/03/15 07:17:00;;;;;;;3.22;0.90;;;7.70;71.70;;;;;;2268363;53;21538;-69
2021/03/15 07:19:29;;;;;;;2.62;1.10;;;7.60;71.40;;;;;;2298929;53;21510;-67
2021/03/15 07:22:19;;;;;;;1.83;0.77;;;7.70;71.60;;;;;;2521835;52;21480;-68
2021/03/15 07:25:18;;;;;;;2.20;0.85;;;7.70;71.70;;;;;;2307592;53;21655;-68
2021/03/15 07:27:52;;;;;;;2.40;0.93;;;7.70;71.50;;;;;;2292039;53;22763;-66
2021/03/15 07:30:30;;;;;;;1.58;0.70;;;7.70;71.70;;;;;;2308902;54;20966;-68
2021/03/15 07:33:08;;;;;;;4.18;1.12;;;7.80;71.60;;;;;;2527327;52;21684;-68
2021/03/15 07:35:40;;;;;;;4.70;1.15;;;7.80;71.50;;;;;;2304735;53;21802;-67
2021/03/15 07:38:12;;;;;;;1.85;0.70;;;7.80;71.30;;;;;;2506348;52;21431;-67
2021/03/15 07:40:49;;;;;;;4.33;1.07;;;7.80;71.70;;;;;;2286611;53;21544;-67
2021/03/15 07:43:31;;;;;;;2.40;0.90;;;7.80;70.90;;;;;;2503684;52;21677;-67
2021/03/15 07:46:03;;;;;;;3.28;1.12;;;7.70;70.90;;;;;;2487745;53;21969;-68
2021/03/15 07:48:32;;;;;;;3.97;1.75;;;7.70;70.90;;;;;;2519522;52;21084;-67
2021/03/15 07:51:04;;;;;;;2.72;1.05;;;7.70;70.70;;;;;;2258921;54;21471;-68
2021/03/15 07:53:52;;;;;;;2.62;1.20;;;7.80;70.90;;;;;;2481701;52;21593;-68
2021/03/15 07:56:32;;;;;;;1.95;0.80;;;7.70;70.70;;;;;;2502746;52;21975;-68
2021/03/15 07:59:11;;;;;;;2.62;0.95;;;7.60;70.60;;;;;;2255410;54;21708;-68
2021/03/15 08:01:39;;;;;;;2.67;0.90;;;7.60;71.40;;;;;;2283101;53;21596;-67
2021/03/15 08:04:08;;;;;;;2.83;1.08;;;7.60;70.80;;;;;;2521270;52;21774;-67
2021/03/15 08:06:41;;;;;;;3.15;1.30;;;7.50;70.90;;;;;;2540510;52;21534;-67
2021/03/15 08:09:10;;;;;;;3.28;1.30;;;7.60;71.20;;;;;;2527560;52;21638;-67
2021/03/15 08:11:40;;;;;;;3.42;1.00;;;7.50;71.10;;;;;;2289472;53;21698;-67
2021/03/15 08:14:42;;;;;;;2.78;1.10;;;7.50;71.20;;;;;;2517677;52;21822;-68
2021/03/15 08:17:12;;;;;;;4.22;1.55;;;7.50;71.10;;;;;;2296406;53;21457;-67
2021/03/15 08:19:41;;;;;;;4.45;1.25;;;7.50;71.30;;;;;;2504907;52;21060;-67
2021/03/15 08:22:32;;;;;;;3.58;1.17;;;7.50;71.50;;;;;;2295456;53;21579;-68
2021/03/15 08:25:10;;;;;;;3.55;1.15;;;7.50;71.40;;;;;;2291418;53;21568;-67
2021/03/15 08:27:43;;;;;;;2.40;0.75;;;7.50;71.60;;;;;;2504247;52;21788;-66
2021/03/15 08:30:22;;;;;;;1.90;0.75;;;7.50;71.70;;;;;;2504501;52;21686;-67
2021/03/15 08:32:51;;;;;;;3.00;1.00;;;7.60;71.80;;;;;;2287651;53;22135;-67
2021/03/15 08:35:21;;;;;;;2.28;0.80;;;7.60;71.90;;;;;;2294559;53;21138;-68
2021/03/15 08:38:00;;;;;;;2.60;0.85;;;7.60;71.80;;;;;;2284542;53;21570;-68
2021/03/15 08:44:00;;;;;;;2.33;0.62;;;7.60;71.80;;;;;;2277621;54;22205;-67
2021/03/15 08:46:36;;;;;;;1.35;0.60;;;7.70;71.20;;;;;;2289508;55;21503;-68
2021/03/15 08:49:07;;;;;;;1.23;0.50;;;7.70;71.40;;;;;;2314825;54;20960;-66
2021/03/15 08:51:38;;;;;;;1.92;0.77;;;7.70;71.60;;;;;;2320184;54;20956;-66
2021/03/15 08:54:08;;;;;;;1.83;0.62;;;7.70;71.70;;;;;;2330354;53;20999;-66
2021/03/15 08:56:36;;;;;;;1.77;0.62;;;7.70;71.80;;;;;;2567150;52;21024;-67
2021/03/15 08:59:09;;;;;;;2.40;0.70;;;7.70;71.90;;;;;;2324653;54;21065;-67
2021/03/15 09:01:50;;;;;;;1.50;0.80;;;7.70;72.00;;;;;;2327722;54;20988;-67
2021/03/15 09:04:45;;;;;;;3.00;0.70;;;7.70;72.10;;;;;;2333613;54;21032;-66
2021/03/15 09:07:46;;;;;;;3.65;0.73;;;7.70;72.20;;;;;;2333625;54;21024;-66
2021/03/15 09:15:32;;;;;;;2.10;0.70;;;7.80;72.30;;;;;;2575429;52;20968;-66
2021/03/15 09:17:59;;;;;;;1.85;0.65;;;8.00;72.00;;;;;;2325595;54;21274;-67
2021/03/15 09:20:35;;;;;;;2.50;1.00;;;7.90;72.40;;;;;;2330141;53;20999;-67
2021/03/15 09:23:31;;;;;;;1.90;0.68;;;8.00;72.60;;;;;;2554475;53;20956;-67
2021/03/15 09:26:32;;;;;;;1.50;0.68;;;8.00;72.50;;;;;;2579137;53;21398;-67
2021/03/15 09:28:59;;;;;;;1.83;0.65;;;8.00;72.60;;;;;;2581394;52;21933;-67
2021/03/15 09:31:25;;;;;;;1.90;0.73;;;8.10;72.90;;;;;;2582246;53;20999;-67
2021/03/15 09:33:51;;;;;;;1.83;0.70;;;8.10;73.10;;;;;;2324852;53;21018;-67
2021/03/15 09:36:27;;;;;;;4.18;0.90;;;8.20;73.00;;;;;;2336946;53;21016;-67
2021/03/15 09:38:54;;;;;;;1.52;0.70;;;8.20;72.90;;;;;;2333848;53;20981;-67
2021/03/15 09:41:22;;;;;;;2.37;0.80;;;8.30;73.10;;;;;;2565862;52;20930;-67
2021/03/15 09:43:49;;;;;;;2.92;0.60;;;8.30;73.00;;;;;;2336861;53;20935;-66
2021/03/15 09:46:16;;;;;;;2.03;0.70;;;8.40;72.90;;;;;;2568269;52;20939;-67
2021/03/15 09:48:43;;;;;;;1.27;0.52;;;8.40;72.60;;;;;;2560974;52;21003;-66
2021/03/15 09:51:29;;;;;;;1.67;0.60;;;8.40;72.50;;;;;;2322313;54;20936;-66
2021/03/15 09:53:58;;;;;;;1.30;0.57;;;8.50;72.10;;;;;;2327616;53;21491;-67
2021/03/15 09:56:25;;;;;;;1.23;0.50;;;8.50;72.30;;;;;;2553140;53;21497;-67
2021/03/15 09:59:10;;;;;;;2.08;0.80;;;8.50;72.20;;;;;;2330584;53;21763;-67
2021/03/15 10:01:44;;;;;;;2.08;1.00;;;8.50;71.90;;;;;;2315339;54;20975;-67
2021/03/15 10:04:11;;;;;;;2.15;0.90;;;8.60;72.30;;;;;;2568744;53;20990;-66
2021/03/15 10:06:40;;;;;;;2.45;1.00;;;8.60;72.40;;;;;;2325410;53;21328;-66
2021/03/15 10:09:13;;;;;;;2.10;0.82;;;8.60;72.50;;;;;;2330033;53;21642;-66
2021/03/15 10:11:43;;;;;;;2.55;0.80;;;8.60;72.30;;;;;;2577617;52;21213;-66
2021/03/15 10:14:10;;;;;;;1.65;0.70;;;8.70;72.40;;;;;;2338542;53;20939;-66
2021/03/15 10:17:00;;;;;;;2.00;0.75;;;8.70;72.50;;;;;;2334602;53;20990;-66
2021/03/15 10:19:30;;;;;;;2.50;0.93;;;8.70;72.40;;;;;;2580489;53;20981;-66
2021/03/15 10:22:18;;;;;;;3.80;1.00;;;8.80;72.90;;;;;;2562178;52;21020;-66
2021/03/15 10:24:49;;;;;;;1.90;0.93;;;8.80;72.60;;;;;;2332846;53;21620;-66
2021/03/15 10:27:30;;;;;;;2.87;0.90;;;8.90;72.80;;;;;;2328890;54;21593;-66
2021/03/15 10:30:09;;;;;;;2.20;1.00;;;8.90;72.50;;;;;;2328500;53;20995;-68
2021/03/15 10:32:36;;;;;;;3.22;1.58;;;9.00;72.60;;;;;;2307853;55;21845;-67
2021/03/15 10:35:05;;;;;;;3.87;1.77;;;9.00;72.60;;;;;;2329139;53;20935;-66
2021/03/15 10:37:33;;;;;;;4.82;1.85;;;9.00;72.60;;;;;;2573434;52;21576;-66
2021/03/15 10:40:00;;;;;;;3.67;1.40;;;9.10;73.10;;;;;;2313138;54;20935;-67
2021/03/15 10:42:30;;;;;;;4.68;1.40;;;9.10;73.30;;;;;;2296560;53;7724160;-67
2021/03/15 10:45:01;;;;;;;1.67;0.77;;;9.20;73.60;;;;;;2503048;52;21578;-67
2021/03/15 10:47:33;;;;;;;3.83;1.10;;;9.30;74.40;;;;;;2280918;53;21628;-67
2021/03/15 10:50:01;;;;;;;2.28;0.90;;;9.40;73.90;;;;;;2496434;52;21797;-67
2021/03/15 10:52:32;;;;;;;2.62;0.98;;;9.50;74.10;;;;;;2286083;54;21563;-66
2021/03/15 10:58:51;;;;;;;2.92;0.95;;;9.50;74.10;;;;;;2286231;53;21696;-67
2021/03/15 11:01:23;;;;;;;4.75;1.70;;;9.80;73.10;;;;;;2529997;52;22078;-68
2021/03/15 11:03:51;;;;;;;2.67;1.27;;;9.90;73.30;;;;;;2284871;53;22154;-67
2021/03/15 11:06:32;;;;;;;4.43;1.50;;;9.90;73.10;;;;;;2526878;52;21928;-68
2021/03/15 11:08:59;;;;;;;4.43;1.20;;;10.00;71.60;;;;;;2283071;53;21901;-67
2021/03/15 11:11:30;;;;;;;2.53;1.05;;;10.00;72.00;;;;;;2520255;53;21498;-66
2021/03/15 11:13:58;;;;;;;3.03;1.48;;;10.10;72.20;;;;;;2313729;54;21883;-67
2021/03/15 11:16:29;;;;;;;4.35;1.20;;;10.10;72.50;;;;;;2324807;54;20956;-67
2021/03/15 11:19:57;;;;;;;3.00;1.23;;;10.20;73.60;;;;;;2321921;54;21612;-66
2021/03/15 11:22:24;;;;;;;2.70;1.35;;;10.50;73.90;;;;;;2326401;53;21064;-66
2021/03/15 11:25:11;;;;;;;3.83;1.62;;;10.60;75.00;;;;;;2302005;53;21525;-66
2021/03/15 11:27:38;;;;;;;3.95;1.80;;;10.80;74.40;;;;;;2536740;53;21396;-67
2021/03/15 11:30:29;;;;;;;4.28;1.77;;;11.00;74.20;;;;;;2315471;53;20936;-66
2021/03/15 11:33:09;;;;;;;4.03;1.80;;;11.10;73.00;;;;;;2298559;53;21492;-67
2021/03/15 11:35:50;;;;;;;3.40;1.33;;;11.20;72.80;;;;;;2549406;52;21753;-67
2021/03/15 11:38:22;;;;;;;2.75;1.20;;;11.30;71.90;;;;;;2534837;52;21713;-68
2021/03/15 11:40:49;;;;;;;2.90;1.00;;;11.30;72.40;;;;;;2297689;54;20948;-67
2021/03/15 11:43:20;;;;;;;2.53;0.98;;;11.40;72.70;;;;;;2309685;53;21838;-67
2021/03/15 11:45:49;;;;;;;2.58;1.00;;;11.50;72.70;;;;;;2296868;53;21475;-67
2021/03/15 11:48:19;;;;;;;1.62;0.68;;;11.50;71.60;;;;;;2548064;52;21665;-66
2021/03/15 11:50:50;;;;;;;2.25;0.90;;;11.50;70.70;;;;;;2303816;54;21008;-66
2021/03/15 11:53:20;;;;;;;2.63;1.13;;;11.50;70.20;;;;;;2304315;53;21898;-67
2021/03/15 11:55:49;;;;;;;2.00;1.05;;;11.50;69.00;;;;;;2300328;53;21068;-67
2021/03/15 11:58:17;;;;;;;2.08;0.90;;;11.40;67.70;;;;;;2309837;53;21449;-67
2021/03/15 12:00:44;;;;;;;1.62;0.77;;;11.30;67.00;;;;;;2307329;53;21082;-67
2021/03/15 12:03:19;;;;;;;1.55;0.75;;;11.10;66.60;;;;;;2546301;52;22573;-66
2021/03/15 12:05:48;;;;;;;1.98;0.80;;;11.00;66.70;;;;;;2553780;52;20949;-74
2021/03/15 12:08:14;;;;;;;2.10;0.90;;;10.90;67.60;;;;;;2562966;52;21488;-67
2021/03/15 12:10:44;;;;;;;1.85;0.93;;;10.80;68.80;;;;;;2314858;54;20948;-65
2021/03/15 12:13:10;;;;;;;3.12;1.33;;;10.70;70.20;;;;;;2553914;52;20956;-66
2021/03/15 12:15:39;;;;;;;3.28;1.20;;;10.80;71.00;;;;;;2305399;53;20928;-66
2021/03/15 12:18:11;;;;;;;2.30;1.02;;;10.80;71.10;;;;;;2542446;52;22212;-68
2021/03/15 12:20:41;;;;;;;2.50;1.00;;;10.90;71.20;;;;;;2306772;53;22468;-70
2021/03/15 12:23:10;;;;;;;2.60;1.20;;;10.90;71.30;;;;;;2317174;53;21416;-66
2021/03/15 12:25:39;;;;;;;2.62;1.00;;;11.00;71.60;;;;;;2306625;53;21607;-77
2021/03/15 12:28:09;;;;;;;2.97;1.17;;;11.10;71.70;;;;;;2539340;52;21537;-66
2021/03/15 12:30:50;;;;;;;2.00;0.95;;;11.20;71.90;;;;;;2558708;52;21441;-79
2021/03/15 12:33:17;;;;;;;2.55;1.17;;;11.30;73.00;;;;;;2312781;54;21450;-66
2021/03/15 12:35:48;;;;;;;2.62;1.50;;;11.50;75.40;;;;;;2537480;53;20973;-66
2021/03/15 12:38:17;;;;;;;3.33;1.65;;;11.80;77.00;;;;;;2309537;54;21003;-75
2021/03/15 12:40:44;;;;;;;2.83;1.52;;;12.10;78.10;;;;;;2319146;54;21035;-73
2021/03/15 12:43:13;;;;;;;2.70;1.30;;;12.40;78.50;;;;;;2337359;54;20987;-73
2021/03/15 12:45:45;;;;;;;3.75;1.60;;;12.70;78.10;;;;;;2345840;53;20952;-73
2021/03/15 12:48:12;;;;;;;3.53;1.35;;;13.00;77.60;;;;;;2318592;53;21380;-65
2021/03/15 12:50:38;;;;;;;2.67;1.00;;;13.30;76.80;;;;;;2330122;54;20968;-66
2021/03/15 12:53:05;;;;;;;2.40;1.20;;;13.50;75.70;;;;;;2329099;54;20945;-66
2021/03/15 12:55:36;;;;;;;2.55;1.23;;;13.70;74.60;;;;;;2333989;53;21414;-66
2021/03/15 12:58:05;;;;;;;2.80;1.10;;;13.90;73.30;;;;;;2334973;53;21580;-66
2021/03/15 13:00:32;;;;;;;2.42;1.17;;;13.90;72.30;;;;;;2587920;52;20972;-65
2021/03/15 13:02:58;;;;;;;2.00;0.90;;;14.00;71.50;;;;;;2340176;54;21003;-65
2021/03/15 13:05:24;;;;;;;2.20;0.90;;;14.00;70.50;;;;;;2344103;53;21064;-64
2021/03/15 13:07:51;;;;;;;1.98;0.80;;;14.00;69.50;;;;;;2331404;53;20959;-65
2021/03/15 13:10:17;;;;;;;3.45;0.60;;;13.90;69.00;;;;;;2570303;53;20979;-66
2021/03/15 13:12:46;;;;;;;1.58;0.77;;;13.80;68.40;;;;;;2311067;54;21047;-66
2021/03/15 13:15:12;;;;;;;1.67;0.70;;;13.70;67.90;;;;;;2584153;52;21474;-66
2021/03/15 13:17:39;;;;;;;1.77;0.60;;;13.60;67.40;;;;;;2340728;53;21103;-65
2021/03/15 13:20:07;;;;;;;1.90;0.70;;;13.50;67.20;;;;;;2576690;52;21060;-66
2021/03/15 13:22:35;;;;;;;0.90;0.45;;;13.50;67.30;;;;;;2338275;53;21535;-66
2021/03/15 13:25:03;;;;;;;3.35;1.90;;;13.40;67.50;;;;;;2580241;52;21010;-74
2021/03/15 13:27:29;;;;;;;2.62;1.00;;;13.30;67.50;;;;;;2575913;53;21012;-72
2021/03/15 13:29:58;;;;;;;2.40;0.68;;;13.20;67.70;;;;;;2566430;52;20957;-77
2021/03/15 13:32:24;;;;;;;1.45;0.60;;;13.20;67.70;;;;;;2570188;52;21527;-67
2021/03/15 13:34:52;;;;;;;2.47;0.93;;;13.10;67.50;;;;;;2569904;52;21003;-67
2021/03/15 13:37:19;;;;;;;2.22;0.82;;;13.10;67.50;;;;;;2324287;54;20968;-64
2021/03/15 13:39:48;;;;;;;1.70;0.62;;;13.00;67.30;;;;;;2305419;55;21604;-65
2021/03/15 13:42:17;;;;;;;1.55;0.62;;;13.00;67.10;;;;;;2326348;54;20952;-66
2021/03/15 13:44:50;;;;;;;1.37;0.57;;;12.90;66.80;;;;;;2329920;53;21366;-67
2021/03/15 13:47:19;;;;;;;2.15;0.70;;;12.80;66.10;;;;;;2565294;52;20951;-66
2021/03/15 13:49:51;;;;;;;1.52;0.70;;;12.70;66.00;;;;;;2545799;53;20996;-66
2021/03/15 13:52:17;;;;;;;1.75;0.70;;;12.60;65.70;;;;;;2327238;53;20971;-66
2021/03/15 13:54:44;;;;;;;1.48;0.70;;;12.50;65.60;;;;;;2328404;53;21039;-67
2021/03/15 13:57:11;;;;;;;1.35;0.50;;;12.30;65.00;;;;;;2329134;53;21051;-65
2021/03/15 13:59:38;;;;;;;1.30;0.47;;;12.10;65.00;;;;;;2335518;54;21212;-66
2021/03/15 14:02:07;;;;;;;1.33;0.52;;;12.00;65.30;;;;;;2338372;53;20979;-66
2021/03/15 14:04:36;;;;;;;1.55;0.60;;;11.80;65.40;;;;;;2340251;53;21002;-66
2021/03/15 14:07:02;;;;;;;1.33;0.40;;;11.70;65.50;;;;;;2342443;53;21819;-66
2021/03/15 14:09:29;;;;;;;0.73;0.30;;;11.60;65.70;;;;;;2583841;52;21939;-66